createdAt,value
2019-01-27T00:01:56.675Z,73.00
2019-01-27T00:04:41.103Z,73.10
2019-01-27T00:08:18.867Z,73.10
2019-01-27T00:13:51.993Z,73.10
2019-01-27T00:16:36.825Z,73.50
2019-01-27T00:19:25.087Z,73.50
2019-01-27T00:22:08.965Z,73.80
2019-01-27T00:24:51.112Z,74.10
2019-01-27T00:27:37.177Z,74.10
2019-01-27T00:30:20.542Z,74.20
2019-01-27T00:33:04.391Z,74.10
2019-01-27T00:35:48.096Z,73.90
2019-01-27T00:38:31.864Z,74.00
2019-01-27T00:41:16.648Z,73.90
2019-01-27T00:44:04.434Z,73.70
2019-01-27T00:46:46.867Z,73.70
2019-01-27T00:49:31.221Z,73.70
2019-01-27T00:52:15.906Z,74.10
2019-01-27T00:55:00.615Z,74.40
2019-01-27T00:57:44.400Z,74.60
2019-01-27T01:00:20.000Z,74.90
2019-01-27T01:03:12.415Z,75.10
2019-01-27T01:08:39.432Z,75.30
2019-01-27T01:11:26.490Z,75.30
2019-01-27T01:14:08.773Z,75.30
2019-01-27T01:16:53.917Z,75.00
2019-01-27T01:19:37.158Z,75.00
2019-01-27T01:22:21.764Z,74.70
2019-01-27T01:27:58.698Z,74.40
2019-01-27T01:30:42.724Z,74.30
2019-01-27T01:33:26.468Z,74.10
2019-01-27T01:36:24.678Z,74.20
2019-01-27T01:39:06.652Z,74.10
2019-01-27T01:41:52.503Z,74.00
2019-01-27T01:44:35.748Z,74.20
2019-01-27T01:47:20.889Z,74.30
2019-01-27T01:50:06.075Z,74.70
2019-01-27T01:55:33.669Z,75.00
2019-01-27T01:58:19.475Z,75.10
2019-01-27T02:01:01.349Z,75.40
2019-01-27T02:03:45.618Z,75.50
2019-01-27T02:06:27.975Z,75.60
2019-01-27T02:12:16.390Z,75.70
2019-01-27T02:15:00.241Z,75.70
2019-01-27T02:17:43.958Z,75.80
2019-01-27T02:20:33.387Z,75.80
2019-01-27T02:23:18.233Z,75.70
2019-01-27T02:26:05.357Z,75.70
2019-01-27T02:28:47.859Z,75.70
2019-01-27T02:31:35.262Z,75.80
2019-01-27T02:34:17.799Z,75.70
2019-01-27T02:37:01.393Z,75.80
2019-01-27T02:39:44.352Z,75.90
2019-01-27T02:42:29.455Z,76.10
2019-01-27T02:45:11.718Z,76.50
2019-01-27T02:47:44.654Z,76.00
2019-01-27T02:50:39.952Z,75.90
2019-01-27T02:53:26.789Z,75.80
2019-01-27T02:56:09.312Z,75.90
2019-01-27T02:58:54.968Z,76.20
2019-01-27T03:01:38.313Z,76.10
2019-01-27T03:04:24.149Z,76.00
2019-01-27T03:07:09.512Z,76.20
2019-01-27T03:09:53.459Z,76.20
2019-01-27T03:12:36.330Z,75.90
2019-01-27T03:15:20.528Z,75.40
2019-01-27T03:18:05.814Z,75.40
2019-01-27T03:23:46.856Z,74.90
2019-01-27T03:29:16.889Z,74.40
2019-01-27T03:32:04.252Z,74.60
2019-01-27T03:34:50.310Z,74.60
2019-01-27T03:40:20.899Z,73.60
2019-01-27T03:45:47.828Z,72.90
2019-01-27T03:48:32.064Z,73.10
2019-01-27T03:51:14.366Z,73.10
2019-01-27T03:54:00.600Z,72.80
2019-01-27T03:56:46.188Z,72.60
2019-01-27T03:59:35.938Z,72.40
2019-01-27T04:02:18.200Z,72.40
2019-01-27T04:07:46.930Z,72.20
2019-01-27T04:10:38.190Z,71.90
2019-01-27T04:13:20.604Z,71.60
2019-01-27T04:16:04.236Z,71.80
2019-01-27T04:18:46.646Z,71.70
2019-01-27T04:21:32.790Z,71.70
2019-01-27T04:24:19.508Z,71.50
2019-01-27T04:27:03.815Z,71.50
2019-01-27T04:29:50.397Z,71.40
2019-01-27T04:35:21.379Z,71.40
2019-01-27T04:38:11.347Z,71.30
2019-01-27T04:40:55.557Z,71.30
2019-01-27T04:43:43.517Z,71.30
2019-01-27T04:46:25.878Z,71.30
2019-01-27T04:49:14.472Z,71.30
2019-01-27T04:51:58.505Z,71.60
2019-01-27T04:54:48.439Z,71.70
2019-01-27T04:57:31.096Z,71.40
2019-01-27T05:00:16.490Z,71.20
2019-01-27T05:03:00.069Z,71.40
2019-01-27T05:05:43.860Z,71.30
2019-01-27T05:08:29.038Z,71.70
2019-01-27T05:11:12.288Z,71.90
2019-01-27T05:16:50.236Z,72.00
2019-01-27T05:19:34.285Z,71.90
2019-01-27T05:22:16.156Z,72.30
2019-01-27T05:25:00.506Z,72.50
2019-01-27T05:27:43.007Z,72.80
2019-01-27T05:30:28.287Z,73.00
2019-01-27T05:33:16.397Z,73.40
2019-01-27T05:38:43.697Z,73.60
2019-01-27T05:41:49.060Z,73.70
2019-01-27T05:44:17.311Z,73.90
2019-01-27T05:47:00.907Z,73.90
2019-01-27T05:49:45.847Z,74.00
2019-01-27T05:55:12.444Z,74.10
2019-01-27T05:57:58.519Z,74.10
2019-01-27T06:00:42.751Z,74.20
2019-01-27T06:03:27.914Z,74.20
2019-01-27T06:08:55.585Z,75.10
2019-01-27T06:14:42.659Z,75.00
2019-01-27T06:17:29.668Z,75.00
2019-01-27T06:20:11.397Z,75.20
2019-01-27T06:23:02.681Z,75.50
2019-01-27T06:25:47.433Z,75.70
2019-01-27T06:28:34.570Z,75.80
2019-01-27T06:31:18.259Z,75.90
2019-01-27T06:34:06.395Z,76.10
2019-01-27T06:36:48.159Z,76.20
2019-01-27T06:39:34.851Z,76.30
2019-01-27T06:42:22.583Z,76.20
2019-01-27T06:45:10.092Z,76.30
2019-01-27T06:47:56.538Z,76.20
2019-01-27T06:53:23.586Z,76.30
2019-01-27T06:56:07.656Z,76.30
2019-01-27T06:58:50.619Z,76.50
2019-01-27T07:01:55.899Z,76.60
2019-01-27T07:04:37.855Z,76.60
2019-01-27T07:10:43.559Z,76.60
2019-01-27T07:13:47.328Z,76.70
2019-01-27T07:16:31.808Z,77.00
2019-01-27T07:22:46.326Z,77.10
2019-01-27T07:28:34.548Z,77.30
2019-01-27T07:40:32.316Z,77.30
2019-01-27T07:46:28.106Z,77.30
2019-01-27T07:51:43.664Z,77.20
2019-01-27T07:57:49.942Z,77.20
2019-01-27T08:00:43.854Z,77.40
2019-01-27T08:03:25.894Z,77.50
2019-01-27T08:06:22.348Z,77.70
2019-01-27T08:09:04.830Z,77.70
2019-01-27T08:11:58.522Z,77.80
2019-01-27T08:14:40.417Z,78.60
2019-01-27T08:17:46.664Z,77.70
2019-01-27T08:20:28.271Z,77.80
2019-01-27T08:23:22.949Z,77.70
2019-01-27T08:26:08.135Z,78.50
2019-01-27T08:32:10.401Z,77.70
2019-01-27T08:35:10.045Z,77.80
2019-01-27T08:37:53.415Z,77.80
2019-01-27T08:44:03.015Z,78.00
2019-01-27T08:47:04.384Z,78.00
2019-01-27T08:49:38.679Z,78.00
2019-01-27T08:52:30.660Z,78.60
2019-01-27T08:55:15.475Z,77.80
2019-01-27T08:57:58.604Z,77.80
2019-01-27T09:00:43.639Z,78.10
2019-01-27T09:03:38.672Z,78.10
2019-01-27T09:06:23.149Z,78.00
2019-01-27T09:09:28.724Z,78.30
2019-01-27T09:12:11.395Z,78.40
2019-01-27T09:18:09.103Z,78.40
2019-01-27T09:23:52.789Z,77.80
2019-01-27T09:26:48.047Z,77.80
2019-01-27T09:29:30.899Z,78.20
2019-01-27T09:32:26.898Z,78.80
2019-01-27T09:35:12.466Z,79.10
2019-01-27T09:41:22.338Z,79.60
2019-01-27T09:46:57.257Z,80.80
2019-01-27T09:52:28.814Z,80.80
2019-01-27T09:55:32.545Z,79.30
2019-01-27T10:01:15.851Z,77.90
2019-01-27T10:04:14.959Z,77.90
2019-01-27T10:06:57.078Z,77.60
2019-01-27T10:09:50.366Z,77.10
2019-01-27T10:12:42.154Z,76.60
2019-01-27T10:15:51.176Z,76.10
2019-01-27T10:18:34.189Z,76.00
2019-01-27T10:24:37.593Z,75.50
2019-01-27T10:27:29.590Z,75.40
2019-01-27T10:30:12.195Z,74.40
2019-01-27T10:33:04.146Z,74.50
2019-01-27T10:36:07.263Z,73.70
2019-01-27T10:44:25.845Z,74.50
2019-01-27T10:47:08.617Z,73.30
2019-01-27T10:50:10.960Z,73.20
2019-01-27T10:52:57.964Z,71.80
2019-01-27T11:04:17.367Z,70.10
2019-01-27T11:07:10.410Z,70.50
2019-01-27T11:09:52.917Z,70.40
2019-01-27T11:15:48.507Z,72.00
2019-01-27T11:21:24.525Z,69.40
2019-01-27T11:24:15.428Z,69.70
2019-01-27T11:27:00.542Z,69.30
2019-01-27T11:30:04.508Z,68.30
2019-01-27T11:32:50.531Z,68.60
2019-01-27T11:36:01.237Z,69.00
2019-01-27T11:38:44.559Z,68.90
2019-01-27T11:41:35.498Z,68.60
2019-01-27T11:44:46.193Z,68.80
2019-01-27T11:50:13.240Z,69.20
2019-01-27T11:53:05.309Z,70.00
2019-01-27T11:55:47.275Z,70.60
2019-01-27T11:58:31.463Z,70.70
2019-01-27T12:04:17.477Z,70.90
2019-01-27T12:06:50.190Z,70.70
2019-01-27T12:09:42.498Z,70.60
2019-01-27T12:15:10.108Z,70.10
2019-01-27T12:17:56.820Z,69.80
2019-01-27T12:20:38.787Z,69.90
2019-01-27T12:23:10.577Z,69.00
2019-01-27T12:26:00.835Z,68.90
2019-01-27T12:28:44.817Z,69.20
2019-01-27T12:31:28.355Z,69.80
2019-01-27T12:34:17.151Z,69.20
2019-01-27T12:37:02.684Z,68.10
2019-01-27T12:42:29.959Z,69.40
2019-01-27T12:45:13.770Z,68.20
2019-01-27T12:48:00.422Z,66.90
2019-01-27T12:53:19.608Z,68.00
2019-01-27T12:56:14.968Z,67.10
2019-01-27T12:58:57.120Z,67.10
2019-01-27T13:01:29.924Z,67.20
2019-01-27T13:04:21.064Z,67.40
2019-01-27T13:06:53.985Z,65.30
2019-01-27T13:09:25.375Z,66.10
2019-01-27T13:11:58.477Z,63.70
2019-01-27T13:14:30.785Z,64.40
2019-01-27T13:17:21.677Z,64.80
2019-01-27T13:19:54.062Z,63.80
2019-01-27T13:22:25.716Z,64.40
2019-01-27T13:25:16.731Z,65.50
2019-01-27T13:31:10.117Z,65.20
2019-01-27T13:33:53.776Z,64.70
2019-01-27T13:36:39.052Z,64.70
2019-01-27T13:39:21.358Z,64.40
2019-01-27T13:41:54.728Z,63.50
2019-01-27T13:44:45.318Z,64.20
2019-01-27T13:50:12.286Z,65.40
2019-01-27T13:52:56.081Z,65.10
2019-01-27T13:55:29.846Z,64.30
2019-01-27T13:58:21.028Z,62.40
2019-01-27T14:01:02.958Z,63.40
2019-01-27T14:03:47.653Z,63.60
2019-01-27T14:06:31.349Z,64.20
2019-01-27T14:09:05.413Z,64.00
2019-01-27T14:11:39.050Z,63.30
2019-01-27T14:14:29.953Z,63.70
2019-01-27T14:17:12.909Z,64.50
2019-01-27T14:19:58.048Z,64.30
2019-01-27T14:22:45.758Z,64.40
2019-01-27T14:25:18.793Z,63.20
2019-01-27T14:28:10.326Z,63.70
2019-01-27T14:30:44.168Z,63.60
2019-01-27T14:33:16.301Z,63.00
2019-01-27T14:36:08.201Z,63.00
2019-01-27T14:39:00.696Z,63.00
2019-01-27T14:44:28.519Z,62.90
2019-01-27T14:47:15.576Z,62.30
2019-01-27T14:50:02.647Z,63.10
2019-01-27T14:52:47.563Z,62.40
2019-01-27T14:55:29.069Z,63.30
2019-01-27T15:00:47.911Z,63.70
2019-01-27T15:03:38.089Z,62.50
2019-01-27T15:06:22.545Z,60.80
2019-01-27T15:09:11.085Z,61.00
2019-01-27T15:11:56.049Z,61.00
2019-01-27T15:14:45.021Z,60.70
2019-01-27T15:17:27.018Z,60.40
2019-01-27T15:20:00.946Z,61.20
2019-01-27T15:22:54.693Z,60.20
2019-01-27T15:26:23.102Z,60.90
2019-01-27T15:29:19.872Z,60.50
2019-01-27T15:38:20.812Z,60.90
2019-01-27T15:46:57.779Z,61.30
2019-01-27T15:49:31.646Z,61.20
2019-01-27T15:52:21.956Z,61.40
2019-01-27T15:57:40.376Z,62.00
2019-01-27T16:00:20.403Z,61.30
2019-01-27T16:03:15.477Z,62.10
2019-01-27T16:05:49.483Z,62.70
2019-01-27T16:08:21.433Z,63.60
2019-01-27T16:11:13.814Z,64.10
2019-01-27T16:14:04.032Z,64.40
2019-01-27T16:19:31.952Z,65.30
2019-01-27T16:22:15.744Z,66.10
2019-01-27T16:25:00.037Z,67.10
2019-01-27T16:27:33.693Z,67.50
2019-01-27T16:30:34.067Z,67.50
2019-01-27T16:33:45.057Z,67.60
2019-01-27T16:36:33.765Z,67.70
2019-01-27T16:39:17.355Z,67.10
2019-01-27T16:41:59.303Z,67.30
2019-01-27T16:44:42.984Z,66.20
2019-01-27T16:47:25.935Z,66.50
2019-01-27T16:50:11.617Z,65.80
2019-01-27T16:52:56.416Z,66.30
2019-01-27T16:55:46.469Z,67.60
2019-01-27T16:58:29.669Z,68.00
2019-01-27T17:01:01.232Z,69.70
2019-01-27T17:03:52.519Z,69.70
2019-01-27T17:09:18.931Z,70.90
2019-01-27T17:12:06.104Z,71.20
2019-01-27T17:14:49.085Z,71.40
2019-01-27T17:17:33.786Z,72.20
2019-01-27T17:20:25.838Z,71.80
2019-01-27T17:29:12.362Z,72.50
2019-01-27T17:34:38.786Z,73.00
2019-01-27T17:37:22.931Z,73.50
2019-01-27T17:40:12.152Z,73.80
2019-01-27T17:45:29.881Z,74.20
2019-01-27T17:48:20.850Z,74.60
2019-01-27T17:53:52.780Z,74.80
2019-01-27T17:56:36.742Z,75.20
2019-01-27T18:05:27.098Z,75.10
2019-01-27T18:18:11.771Z,74.60
2019-01-27T18:20:54.515Z,74.60
2019-01-27T18:23:47.439Z,74.20
2019-01-27T18:26:41.226Z,74.20
2019-01-27T18:29:13.958Z,74.10
2019-01-27T18:32:04.626Z,74.50
2019-01-27T18:34:47.055Z,74.90
2019-01-27T18:37:31.540Z,74.80
2019-01-27T18:40:13.794Z,74.70
2019-01-27T18:43:00.643Z,74.70
2019-01-27T18:45:33.616Z,74.60
2019-01-27T18:57:38.144Z,73.90
2019-01-27T19:03:01.618Z,74.50
2019-01-27T19:05:59.393Z,74.60
2019-01-27T19:08:44.859Z,74.80
2019-01-27T19:11:53.527Z,74.60
2019-01-27T19:14:36.668Z,74.20
2019-01-27T19:20:44.037Z,74.10
2019-01-27T19:23:41.520Z,74.50
2019-01-27T19:26:30.267Z,74.80
2019-01-27T19:29:27.103Z,74.90
2019-01-27T19:32:10.343Z,74.80
2019-01-27T19:38:13.574Z,74.20
2019-01-27T19:43:41.458Z,73.90
2019-01-27T19:46:33.768Z,73.60
2019-01-27T19:49:18.449Z,72.90
2019-01-27T19:52:25.758Z,74.00
2019-01-27T19:55:17.072Z,73.70
2019-01-27T20:04:35.067Z,73.60
2019-01-27T20:07:17.306Z,73.60
2019-01-27T20:10:10.082Z,74.10
2019-01-27T20:12:54.841Z,74.20
2019-01-27T20:18:42.910Z,72.90
2019-01-27T20:21:53.423Z,73.40
2019-01-27T20:24:35.031Z,74.10
2019-01-27T20:27:35.219Z,73.90
2019-01-27T20:30:36.877Z,74.00
2019-01-27T20:33:54.868Z,74.60
2019-01-27T20:36:41.236Z,74.90
2019-01-27T20:39:32.547Z,74.60
2019-01-27T20:42:24.702Z,74.60
2019-01-27T20:45:26.724Z,74.50
2019-01-27T20:48:24.261Z,74.30
2019-01-27T20:51:34.106Z,74.30
2019-01-27T20:54:29.947Z,74.60
2019-01-27T21:00:58.319Z,74.60
2019-01-27T21:04:15.937Z,74.30
2019-01-27T21:07:12.288Z,74.20
2019-01-27T21:13:07.612Z,74.10
2019-01-27T21:19:15.257Z,73.90
2019-01-27T21:22:00.634Z,73.60
2019-01-27T21:24:45.430Z,73.30
2019-01-27T21:27:30.799Z,73.50
2019-01-27T21:30:14.508Z,73.80
2019-01-27T21:33:00.397Z,74.00
2019-01-27T21:35:42.514Z,74.20
2019-01-27T21:38:26.402Z,74.50
2019-01-27T21:41:10.062Z,73.90
2019-01-27T21:43:54.675Z,73.70
2019-01-27T21:46:43.908Z,74.30
2019-01-27T21:52:13.154Z,75.70
2019-01-27T21:55:00.618Z,75.20
2019-01-27T21:57:42.298Z,75.60
2019-01-27T22:00:27.944Z,75.60
2019-01-27T22:03:10.823Z,75.40
2019-01-27T22:06:00.419Z,75.00
2019-01-27T22:08:48.410Z,75.80
2019-01-27T22:11:32.444Z,75.40
2019-01-27T22:14:14.821Z,75.70
2019-01-27T22:16:59.578Z,75.20
2019-01-27T22:19:43.476Z,75.30
2019-01-27T22:22:27.992Z,74.80
2019-01-27T22:25:10.855Z,74.80
2019-01-27T22:27:55.664Z,74.70
2019-01-27T22:30:38.985Z,74.70
2019-01-27T22:33:24.688Z,74.50
2019-01-27T22:36:06.757Z,74.50
2019-01-27T22:38:50.468Z,74.10
2019-01-27T22:41:33.117Z,74.10
2019-01-27T22:44:17.604Z,74.70
2019-01-27T22:47:00.264Z,73.80
2019-01-27T22:49:45.700Z,73.70
2019-01-27T22:52:29.169Z,73.80
2019-01-27T22:55:15.683Z,74.10
2019-01-27T22:57:58.211Z,74.60
2019-01-27T23:03:46.260Z,74.90
2019-01-27T23:06:33.141Z,74.80
2019-01-27T23:09:17.385Z,74.30
2019-01-27T23:12:02.226Z,74.50
2019-01-27T23:14:47.442Z,74.40
2019-01-27T23:17:32.171Z,74.50
2019-01-27T23:20:14.301Z,74.50
2019-01-27T23:22:46.117Z,74.70
2019-01-27T23:28:32.701Z,74.50
2019-01-27T23:31:19.720Z,74.60
2019-01-27T23:34:02.949Z,74.60
2019-01-27T23:36:44.963Z,74.60
2019-01-27T23:39:29.902Z,74.20
2019-01-27T23:42:15.774Z,74.50
2019-01-27T23:44:59.591Z,74.20
2019-01-27T23:47:41.826Z,74.20
2019-01-27T23:50:24.963Z,73.60
2019-01-27T23:53:08.139Z,73.70
2019-01-27T23:55:55.214Z,73.70
